Flight Track Log - Related Links

Times and Time Zones

All times are in EDT time to prevent confusion due to time zone crossing. See the VNR160 flight status page for this flight to view local times or setup timezone preferences in your user account.

Time Position Orientation Groundspeed Altitude Reporting Facility
EDT Latitude Longitude Course Direction KTS MPH feet Rate Location/Type
Fri 07:00:58 AM 41.0833 -73.7167 270° West 140 161 1,500  Level New York TRACON
Fri 07:01:52 AM 41.0833 -73.7667 270° West 160 184 3,400 2,263 Climbing New York TRACON
Fri 07:02:52 AM 41.0500 -73.8333 236° Southwest 161 185 5,800 1,650 Climbing New York TRACON
Fri 07:03:52 AM 41.0333 -73.8833 246° West 200 230 6,700 1,400 Climbing New York TRACON
Fri 07:04:52 AM 41.0000 -73.9667 242° Southwest 215 247 8,600 2,158 Climbing New York TRACON
Fri 07:05:46 AM 40.9833 -74.0167 246° West 195 224 10,800 1,737 Climbing New York TRACON
Fri 07:06:46 AM 40.9500 -74.0833 237° Southwest 210 242 11,900 600 Climbing New York TRACON
Fri 07:07:46 AM 40.9500 -74.1667 270° West 255 293 12,000 50 Climbing New York TRACON
Fri 07:08:46 AM 40.9333 -74.2667 258° West 269 310 12,000  Level New York TRACON
Fri 07:09:46 AM 40.9167 -74.3667 258° West 271 312 12,000  Level New York TRACON
Fri 07:10:15 AM 40.9019 -74.3894 229° Southwest 277 319 12,000  Level New York Center
Fri 07:11:17 AM 40.8575 -74.4778 236° Southwest 272 313 12,000  Level New York Center
Fri 07:12:17 AM 40.8178 -74.5522 235° Southwest 267 307 12,000  Level New York Center
Fri 07:13:18 AM 40.7711 -74.6400 235° Southwest 267 307 12,000  Level New York Center
Fri 07:14:18 AM 40.7333 -74.7092 234° Southwest 272 313 12,000 300 Level New York Center
Fri 07:15:18 AM 40.6844 -74.7994 234° Southwest 277 319 12,600 1,169 Climbing New York Center
Fri 07:16:16 AM 40.6422 -74.8789 235° Southwest 271 312 14,300 1,322 Climbing New York Center
Fri 07:17:16 AM 40.6000 -74.9528 233° Southwest 271 312 15,200 942 Climbing New York Center
Fri 07:18:17 AM 40.5600 -75.0269 235° Southwest 271 312 16,200 1,388 Climbing New York Center
Fri 07:19:17 AM 40.5089 -75.1111 231° Southwest 271 312 18,000 1,350 Climbing New York Center
Fri 07:20:17 AM 40.4669 -75.1739 229° Southwest 271 312 18,900 1,424 Climbing New York Center
Fri 07:21:15 AM 40.4225 -75.2475 232° Southwest 265 305 20,800 1,815 Climbing New York Center
Fri 07:22:16 AM 40.3781 -75.3181 230° Southwest 265 305 22,500 1,377 Climbing New York Center
Fri 07:23:17 AM 40.3294 -75.3939 230° Southwest 265 305 23,600 1,050 Climbing New York Center
Fri 07:24:16 AM 40.2781 -75.4747 230° Southwest 283 326 24,600 1,119 Climbing New York Center
Fri 07:25:15 AM 40.2292 -75.5558 232° Southwest 290 334 25,800 1,210 Climbing New York Center
Fri 07:26:15 AM 40.1836 -75.6450 236° Southwest 290 334 27,000 1,190 Climbing New York Center
Fri 07:27:16 AM 40.1361 -75.7342 235° Southwest 296 341 28,200 1,190 Climbing New York Center
Fri 07:28:16 AM 40.0928 -75.8233 238° Southwest 296 341 29,400 1,190 Climbing New York Center
Fri 07:29:17 AM 40.0494 -75.9122 238° Southwest 296 341 30,600 1,041 Climbing New York Center
Fri 07:30:17 AM 40.0017 -76.0008 235° Southwest 296 341 31,500 694 Climbing New York Center
Fri 07:31:18 AM 39.9536 -76.0950 236° Southwest 302 348 32,000 252 Climbing New York Center
Fri 07:32:16 AM 39.9056 -76.1914 237° Southwest 308 354 32,000  Level New York Center
Fri 07:33:17 AM 39.8489 -76.2897 233° Southwest 326 375 32,000  Level New York Center
Fri 07:35:05 AM 39.7603 -76.4769 238° Southwest 339 390 32,000  Level Washington Center
Fri 07:36:07 AM 39.6950 -76.5867 232° Southwest 350 403 32,000  Level Washington Center
Fri 07:37:04 AM 39.6461 -76.6883 238° Southwest 350 403 32,000  Level Washington Center
Fri 07:38:05 AM 39.5911 -76.7897 235° Southwest 350 403 32,000  Level Washington Center
Fri 07:39:06 AM 39.5378 -76.8911 236° Southwest 350 403 32,000  Level Washington Center
Fri 07:40:04 AM 39.4825 -76.9897 234° Southwest 350 403 32,000  Level Washington Center
Fri 07:41:06 AM 39.4044 -77.0742 220° Southwest 356 410 32,000  Level Washington Center
Fri 07:42:04 AM 39.3264 -77.1558 219° Southwest 362 417 32,000  Level Washington Center
Fri 07:43:04 AM 39.2481 -77.2372 219° Southwest 362 417 32,000  Level Washington Center
Fri 07:44:05 AM 39.1742 -77.3158 220° Southwest 362 417 32,000  Level Washington Center
Fri 07:45:06 AM 39.0936 -77.3969 218° Southwest 362 417 32,000  Level Washington Center
Fri 07:46:07 AM 39.0175 -77.4750 219° Southwest 362 417 32,000  Level Washington Center
Fri 07:47:07 AM 38.9497 -77.5481 220° Southwest 357 411 32,000  Level Washington Center
Fri 07:48:04 AM 38.8647 -77.6392 220° Southwest 357 411 32,000  Level Washington Center
Fri 07:49:05 AM 38.7925 -77.7092 217° Southwest 362 417 32,000  Level Washington Center
Fri 07:50:05 AM 38.7161 -77.7867 218° Southwest 362 417 32,000  Level Washington Center
Fri 07:51:06 AM 38.6417 -77.8669 220° Southwest 357 411 32,000  Level Washington Center
Fri 07:52:07 AM 38.5856 -77.9608 233° Southwest 350 403 32,000  Level Washington Center
Fri 07:53:05 AM 38.5275 -78.0572 232° Southwest 345 397 32,000  Level Washington Center
Fri 07:54:05 AM 38.4711 -78.1533 233° Southwest 345 397 32,000  Level Washington Center
Fri 07:55:05 AM 38.4150 -78.2469 233° Southwest 340 391 32,000  Level Washington Center
Fri 07:56:06 AM 38.3586 -78.3428 233° Southwest 340 391 32,000  Level Washington Center
Fri 07:57:07 AM 38.2981 -78.4358 230° Southwest 340 391 32,000  Level Washington Center
Fri 07:58:05 AM 38.2394 -78.5367 234° Southwest 340 391 32,000  Level Washington Center
Fri 07:59:07 AM 38.1786 -78.6294 230° Southwest 340 391 32,000  Level Washington Center
Fri 08:00:05 AM 38.1264 -78.7117 231° Southwest 345 397 32,000  Level Washington Center
Fri 08:01:07 AM 38.0656 -78.8042 230° Southwest 345 397 32,000  Level Washington Center
Fri 08:02:05 AM 38.0067 -78.8992 232° Southwest 345 397 32,000  Level Washington Center
Fri 08:03:06 AM 37.9478 -78.9914 231° Southwest 345 397 32,000  Level Washington Center
Fri 08:04:07 AM 37.8825 -79.0911 230° Southwest 345 397 32,000  Level Washington Center
Fri 08:05:05 AM 37.8211 -79.1856 231° Southwest 345 397 32,000  Level Washington Center
Fri 08:06:05 AM 37.7622 -79.2747 230° Southwest 345 397 32,000  Level Washington Center
Fri 08:07:04 AM 37.7008 -79.3661 230° Southwest 345 397 32,000  Level Washington Center
Fri 08:08:06 AM 37.6483 -79.4500 232° Southwest 345 397 32,000  Level Washington Center
Fri 08:09:07 AM 37.5825 -79.5489 230° Southwest 345 397 32,000  Level Washington Center
Fri 08:10:07 AM 37.5294 -79.6325 231° Southwest 345 397 32,000  Level Washington Center
Fri 08:11:05 AM 37.4636 -79.7311 230° Southwest 345 397 32,000  Level Washington Center
Fri 08:12:06 AM 37.4019 -79.8247 230° Southwest 345 397 32,000  Level Washington Center
Fri 08:13:07 AM 37.3489 -79.9053 230° Southwest 350 403 32,000  Level Washington Center
Fri 08:14:41 AM 37.2508 -80.0472 229° Southwest 346 398 32,000  Level Atlanta Center
Fri 08:15:41 AM 37.1931 -80.1361 231° Southwest 341 392 32,000  Level Atlanta Center
Fri 08:16:41 AM 37.1275 -80.2356 230° Southwest 341 392 32,000  Level Atlanta Center
Fri 08:17:41 AM 37.0697 -80.3217 230° Southwest 341 392 32,000  Level Atlanta Center
Fri 08:18:41 AM 37.0078 -80.4103 229° Southwest 341 392 32,000  Level Atlanta Center
Fri 08:19:41 AM 36.9497 -80.4961 230° Southwest 341 392 32,000  Level Atlanta Center
Fri 08:20:41 AM 36.8958 -80.5764 230° Southwest 341 392 32,000  Level Atlanta Center
Fri 08:21:41 AM 36.8378 -80.6619 230° Southwest 341 392 32,000 50 Level Atlanta Center
Fri 08:22:41 AM 36.7797 -80.7525 231° Southwest 341 392 32,100  Climbing Atlanta Center
Fri 08:23:41 AM 36.7233 -80.8300 228° Southwest 320 368 32,000 -50 Descending Atlanta Center
Fri 08:24:41 AM 36.6592 -80.9256 230° Southwest 320 368 32,000  Level Atlanta Center
Fri 08:25:41 AM 36.6008 -81.0133 230° Southwest 320 368 32,000  Level Atlanta Center
Fri 08:26:41 AM 36.5403 -81.1008 229° Southwest 327 376 32,000  Level Atlanta Center
Fri 08:27:41 AM 36.4819 -81.1881 230° Southwest 327 376 32,000  Level Atlanta Center
Fri 08:28:41 AM 36.4236 -81.2781 231° Southwest 332 382 32,000  Level Atlanta Center
Fri 08:29:41 AM 36.3628 -81.3625 228° Southwest 338 389 32,000  Level Atlanta Center
Fri 08:30:41 AM 36.3042 -81.4494 230° Southwest 338 389 32,000  Level Atlanta Center
Fri 08:31:41 AM 36.2456 -81.5339 229° Southwest 338 389 32,000  Level Atlanta Center
Fri 08:32:41 AM 36.1847 -81.6206 229° Southwest 338 389 32,000  Level Atlanta Center
Fri 08:33:41 AM 36.1239 -81.7097 230° Southwest 333 383 32,000  Level Atlanta Center
Fri 08:34:41 AM 36.0647 -81.7936 229° Southwest 333 383 32,000  Level Atlanta Center
Fri 08:35:41 AM 36.0017 -81.8803 228° Southwest 338 389 32,000  Level Atlanta Center
Fri 08:36:41 AM 35.9469 -81.9664 232° Southwest 333 383 32,000  Level Atlanta Center
Fri 08:37:41 AM 35.8939 -82.0419 229° Southwest 333 383 32,000  Level Atlanta Center
Fri 08:38:41 AM 35.8306 -82.1281 228° Southwest 339 390 32,000  Level Atlanta Center
Fri 08:39:41 AM 35.7736 -82.2114 230° Southwest 334 384 32,000  Level Atlanta Center
Fri 08:40:41 AM 35.7142 -82.2944 229° Southwest 334 384 32,000  Level Atlanta Center
Fri 08:41:41 AM 35.6547 -82.3750 228° Southwest 334 384 32,000 -50 Level Atlanta Center
Fri 08:42:41 AM 35.5956 -82.4603 230° Southwest 334 384 31,900 -600 Descending Atlanta Center
Fri 08:43:41 AM 35.5339 -82.5483 229° Southwest 343 395 30,800 -1,050 Descending Atlanta Center
Fri 08:44:41 AM 35.4578 -82.6442 226° Southwest 350 403 29,800 -1,000 Descending Atlanta Center
Fri 08:45:41 AM 35.3922 -82.7394 230° Southwest 360 414 28,800 -1,000 Descending Atlanta Center
Fri 08:46:41 AM 35.3283 -82.8322 230° Southwest 365 420 27,800 -1,000 Descending Atlanta Center
Fri 08:47:41 AM 35.2625 -82.9194 227° Southwest 358 412 26,800 -1,000 Descending Atlanta Center
Fri 08:48:41 AM 35.1986 -83.0069 228° Southwest 348 400 25,800 -1,000 Descending Atlanta Center
Fri 08:49:41 AM 35.1347 -83.0939 228° Southwest 343 395 24,800 -1,000 Descending Atlanta Center
Fri 08:50:41 AM 35.0728 -83.1811 229° Southwest 343 395 23,800 -1,000 Descending Atlanta Center
Fri 08:51:41 AM 35.0106 -83.2653 228° Southwest 343 395 22,800 -900 Descending Atlanta Center
Fri 08:52:41 AM 34.9464 -83.3547 229° Southwest 343 395 22,000 -800 Descending Atlanta Center
Fri 08:53:41 AM 34.8906 -83.4311 228° Southwest 337 388 21,200 -500 Descending Atlanta Center
Fri 08:54:41 AM 34.8325 -83.5100 228° Southwest 337 388 21,000 -100 Descending Atlanta Center
Fri 08:55:41 AM 34.7703 -83.5911 227° Southwest 337 388 21,000 -650 Level Atlanta Center
Fri 08:56:41 AM 34.7100 -83.6700 227° Southwest 337 388 19,700 -1,500 Descending Atlanta Center
Fri 08:57:41 AM 34.6497 -83.7586 230° Southwest 322 371 18,000 -1,950 Descending Atlanta Center
Fri 08:58:41 AM 34.5933 -83.8319 227° Southwest 311 358 15,800 -2,000 Descending Atlanta Center
Fri 08:59:41 AM 34.5392 -83.9078 229° Southwest 306 352 14,000 -1,850 Descending Atlanta Center
Fri 09:00:41 AM 34.4808 -83.9833 227° Southwest 306 352 12,100 -1,950 Descending Atlanta Center
Fri 09:01:41 AM 34.4036 -84.0261 205° Southwest 306 352 10,100 -1,900 Descending Atlanta Center
Fri 09:02:41 AM 34.3306 -84.0664 204° Southwest 301 346 8,300 -1,050 Descending Atlanta Center
Fri 09:03:41 AM 34.2575 -84.1042 203° Southwest 289 333 8,000 -300 Descending Atlanta Center
Fri 09:04:41 AM 34.1825 -84.1317 197° South 289 333 7,700 -650 Descending Atlanta Center
Fri 09:05:41 AM 34.1114 -84.1467 190° South 272 313 6,700 -1,273 Descending Atlanta Center
Fri 09:06:20 AM 34.0667 -84.1500 184° South 226 260 5,600 -1,455 Descending Atlanta TRACON
Fri 09:07:20 AM 34.0167 -84.1667 195° South 227 261 4,300 -800 Descending Atlanta TRACON
Fri 09:08:20 AM 33.9500 -84.1833 192° South 211 243 4,000 -150 Descending Atlanta TRACON
Fri 09:09:20 AM 33.9000 -84.2000 195° South 211 243 4,000 -286 Level Atlanta TRACON
Fri 09:10:26 AM 33.8333 -84.2333 203° Southwest 190 219 3,400 -800 Descending Atlanta TRACON
Fri 09:11:20 AM 33.8167 -84.2833 248° West 189 217 2,400 -1,111 Descending Atlanta TRACON
Fri 09:13:00 AM 33.8667 -84.3000 301° West  Level FlightAware Approximate
Fri 09:20:00 AM 33.8756 -84.3020 301° West  Level Estimated
Fri 09:21:00 AM 33.8756 -84.3020 301° West  Level Estimated

Login

Don't have an account? Register now (free) for customized features, flight alerts, and more!